Trans Sea — 9HA2564 — position and weather

sailwx.info

Track history (hours):
 
Tides and Currents Weather Stations Pressure Air Temp Water Temp Dewpoint Dewpoint Depression Visibility Wind Speed Wind Dir Waves Ship Positions

Trans Sea

Last reported at 2017-Mar-24 22:30 UTC. Time now 2017-Mar-25 11:32 UTC.
Position N 40°01' E 026°13'.

Length 107 m; draft 6.2 m.

Type: Ship (hazmat cat D). MMSI: 248887000.

Date/timePositionNaut miles runAvg speedWind from/ knotsBaromVisibWave heightAir tempDewpointWater temp
2017-Mar-24 22:30N 40°01' E 026°13'11 9.4
2017-Mar-24 21:18N 39°57' E 025°59'  
2017-Mar-22 13:29N 36°17' E 014°40'1111.8
2017-Mar-22 12:31N 36°20' E 014°26'1312.7
2017-Mar-22 11:28N 36°25' E 014°11'1212.3
2017-Mar-22 10:31N 36°29' E 013°57'1312.3
2017-Mar-22 09:30N 36°34' E 013°42'  
2017-Mar-20 01:13N 36°31' W 000°55'13412.6
2017-Mar-19 14:33N 36°11' W 003°40'1312.9
2017-Mar-19 13:33N 36°09' W 003°56'4413.1
2017-Mar-19 10:13N 36°02' W 004°49'1113.2
2017-Mar-19 09:24N 35°60' W 005°02'1113.6
2017-Mar-19 08:33N 35°58' W 005°16'1312.9
2017-Mar-19 07:33N 35°56' W 005°32'1312.5
2017-Mar-19 06:30N 35°55' W 005°48'14912.1
2017-Mar-18 18:10N 36°24' W 008°49'812.5
2017-Mar-18 17:33N 36°26' W 008°58'1212.0
2017-Mar-18 16:33N 36°29' W 009°12'3411.2
2017-Mar-18 13:30N 36°54' W 009°40'1212.5
2017-Mar-18 12:33N 37°06' W 009°44'1212.4
2017-Mar-18 11:33N 37°18' W 009°47'1312.7
2017-Mar-18 10:33N 37°30' W 009°51'1312.7
2017-Mar-18 09:33N 37°43' W 009°54'1312.8
2017-Mar-18 08:33N 37°55' W 009°58'1312.7
2017-Mar-18 07:33N 38°08' W 010°02'1312.7
2017-Mar-18 06:33N 38°20' W 010°06'1312.6
2017-Mar-18 05:33N 38°32' W 010°09'1312.6
2017-Mar-18 04:33N 38°45' W 010°12'1212.4
2017-Mar-18 03:33N 38°57' W 010°09'1312.8
2017-Mar-18 02:33N 39°08' W 010°01'1313.0
2017-Mar-18 01:33N 39°19' W 009°52'1313.1
2017-Mar-18 00:33N 39°31' W 009°45'1312.6
2017-Mar-17 23:33N 39°41' W 009°36'2613.0
2017-Mar-17 21:33N 40°04' W 009°19'1313.1
2017-Mar-17 20:33N 40°15' W 009°11'  
2017-Mar-15 08:31N 48°50' W 005°50'29 9.6
2017-Mar-15 05:32N 49°07' W 005°14'1010.2
2017-Mar-15 04:31N 49°12' W 005°01'1010.8
2017-Mar-15 03:33N 49°17' W 004°47'  
Track history (hours):
 
Tides and Currents Weather Stations Pressure Air Temp Water Temp Dewpoint Dewpoint Depression Visibility Wind Speed Wind Dir Waves Ship Positions

Trans Sea

Last reported at 2017-Mar-24 22:30 UTC. Time now 2017-Mar-25 11:32 UTC.
Position N 40°01' E 026°13'.

Length 107 m; draft 6.2 m.

Type: Ship (hazmat cat D). MMSI: 248887000.

Date/timePositionNaut miles runAvg speedWind from/ knotsBaromVisibWave heightAir tempDewpointWater temp
2017-Mar-24 22:30N 40°01' E 026°13'11 9.4
2017-Mar-24 21:18N 39°57' E 025°59'  
2017-Mar-22 13:29N 36°17' E 014°40'1111.8
2017-Mar-22 12:31N 36°20' E 014°26'1312.7
2017-Mar-22 11:28N 36°25' E 014°11'1212.3
2017-Mar-22 10:31N 36°29' E 013°57'1312.3
2017-Mar-22 09:30N 36°34' E 013°42'  
2017-Mar-20 01:13N 36°31' W 000°55'13412.6
2017-Mar-19 14:33N 36°11' W 003°40'1312.9
2017-Mar-19 13:33N 36°09' W 003°56'4413.1
2017-Mar-19 10:13N 36°02' W 004°49'1113.2
2017-Mar-19 09:24N 35°60' W 005°02'1113.6
2017-Mar-19 08:33N 35°58' W 005°16'1312.9
2017-Mar-19 07:33N 35°56' W 005°32'1312.5
2017-Mar-19 06:30N 35°55' W 005°48'14912.1
2017-Mar-18 18:10N 36°24' W 008°49'812.5
2017-Mar-18 17:33N 36°26' W 008°58'1212.0
2017-Mar-18 16:33N 36°29' W 009°12'3411.2
2017-Mar-18 13:30N 36°54' W 009°40'1212.5
2017-Mar-18 12:33N 37°06' W 009°44'1212.4
2017-Mar-18 11:33N 37°18' W 009°47'1312.7
2017-Mar-18 10:33N 37°30' W 009°51'1312.7
2017-Mar-18 09:33N 37°43' W 009°54'1312.8
2017-Mar-18 08:33N 37°55' W 009°58'1312.7
2017-Mar-18 07:33N 38°08' W 010°02'1312.7
2017-Mar-18 06:33N 38°20' W 010°06'1312.6
2017-Mar-18 05:33N 38°32' W 010°09'1312.6
2017-Mar-18 04:33N 38°45' W 010°12'1212.4
2017-Mar-18 03:33N 38°57' W 010°09'1312.8
2017-Mar-18 02:33N 39°08' W 010°01'1313.0
2017-Mar-18 01:33N 39°19' W 009°52'1313.1
2017-Mar-18 00:33N 39°31' W 009°45'1312.6
2017-Mar-17 23:33N 39°41' W 009°36'2613.0
2017-Mar-17 21:33N 40°04' W 009°19'1313.1
2017-Mar-17 20:33N 40°15' W 009°11'  
2017-Mar-15 08:31N 48°50' W 005°50'29 9.6
2017-Mar-15 05:32N 49°07' W 005°14'1010.2
2017-Mar-15 04:31N 49°12' W 005°01'1010.8
2017-Mar-15 03:33N 49°17' W 004°47'  

Dump ship's entire track history